createdAt,value
2016-10-26T00:00:11.987Z,740.72
2016-10-26T00:01:11.965Z,740.68
2016-10-26T00:02:11.957Z,740.7
2016-10-26T00:03:11.938Z,740.7
2016-10-26T00:04:11.922Z,740.67
2016-10-26T00:05:11.908Z,740.66
2016-10-26T00:06:11.894Z,740.71
2016-10-26T00:07:11.887Z,740.7
2016-10-26T00:08:11.874Z,740.62
2016-10-26T00:09:11.851Z,740.71
2016-10-26T00:10:11.837Z,740.71
2016-10-26T00:11:11.823Z,740.64
2016-10-26T00:12:11.811Z,740.64
2016-10-26T00:13:11.794Z,740.7
2016-10-26T00:14:11.781Z,740.76
2016-10-26T00:15:11.767Z,740.7
2016-10-26T00:16:11.752Z,740.71
2016-10-26T00:17:11.744Z,740.77
2016-10-26T00:18:11.729Z,740.75
2016-10-26T00:19:11.716Z,740.69
2016-10-26T00:20:11.701Z,740.75
2016-10-26T00:21:11.686Z,740.81
2016-10-26T00:22:11.674Z,740.71
2016-10-26T00:23:11.650Z,740.77
2016-10-26T00:24:11.636Z,740.81
2016-10-26T00:25:11.622Z,740.81
2016-10-26T00:26:11.607Z,740.88
2016-10-26T00:27:11.593Z,740.85
2016-10-26T00:28:11.579Z,740.86
2016-10-26T00:29:11.572Z,740.81
2016-10-26T00:30:11.558Z,740.87
2016-10-26T00:31:11.543Z,740.83
2016-10-26T00:32:11.529Z,740.86
2016-10-26T00:33:11.514Z,740.88
2016-10-26T00:34:11.492Z,740.84
2016-10-26T00:35:11.479Z,740.84
2016-10-26T00:36:11.471Z,740.85
2016-10-26T00:37:11.450Z,740.74
2016-10-26T00:38:11.442Z,740.85
2016-10-26T00:39:11.630Z,740.85
2016-10-26T00:40:11.407Z,740.89
2016-10-26T00:41:11.392Z,740.87
2016-10-26T00:42:11.377Z,740.86
2016-10-26T00:43:11.363Z,740.82
2016-10-26T00:44:11.357Z,740.87
2016-10-26T00:45:11.336Z,740.79
2016-10-26T00:46:11.320Z,740.84
2016-10-26T00:47:11.307Z,740.77
2016-10-26T00:48:11.293Z,740.81
2016-10-26T00:49:11.277Z,740.78
2016-10-26T00:50:11.265Z,740.82
2016-10-26T00:51:11.257Z,740.81
2016-10-26T00:52:11.237Z,740.81
2016-10-26T00:53:11.228Z,740.79
2016-10-26T00:54:11.214Z,740.81
2016-10-26T00:55:11.200Z,740.88
2016-10-26T00:56:11.179Z,740.79
2016-10-26T00:57:11.172Z,740.82
2016-10-26T00:58:11.172Z,740.86
2016-10-26T00:59:11.138Z,740.88
2016-10-26T01:00:11.130Z,740.88
2016-10-26T01:01:11.110Z,740.85
2016-10-26T01:02:11.103Z,740.82
2016-10-26T01:03:11.090Z,740.85
2016-10-26T01:04:11.075Z,740.85
2016-10-26T01:05:11.062Z,740.77
2016-10-26T01:06:11.041Z,740.81
2016-10-26T01:07:11.027Z,740.83
2016-10-26T01:08:11.041Z,740.85
2016-10-26T01:09:11.023Z,740.88
2016-10-26T01:10:10.986Z,740.9
2016-10-26T01:11:10.981Z,740.89
2016-10-26T01:12:10.958Z,740.92
2016-10-26T01:13:10.951Z,740.91
2016-10-26T01:14:10.931Z,740.77
2016-10-26T01:15:10.922Z,740.93
2016-10-26T01:16:10.908Z,740.78
2016-10-26T01:17:10.895Z,740.81
2016-10-26T01:18:10.874Z,740.84
2016-10-26T01:19:10.859Z,740.86
2016-10-26T01:20:10.852Z,740.88
2016-10-26T01:21:10.831Z,740.81
2016-10-26T01:22:10.823Z,740.86
2016-10-26T01:23:10.802Z,740.87
2016-10-26T01:24:10.788Z,740.89
2016-10-26T01:25:10.781Z,740.88
2016-10-26T01:26:10.759Z,740.84
2016-10-26T01:27:10.752Z,740.84
2016-10-26T01:28:10.739Z,740.83
2016-10-26T01:29:10.724Z,740.86
2016-10-26T01:30:10.712Z,740.85
2016-10-26T01:31:10.697Z,740.82
2016-10-26T01:32:10.676Z,740.86
2016-10-26T01:33:10.662Z,740.86
2016-10-26T01:34:10.648Z,740.88
2016-10-26T01:35:10.634Z,740.86
2016-10-26T01:36:10.620Z,740.86
2016-10-26T01:37:10.612Z,740.81
2016-10-26T01:38:10.591Z,740.81
2016-10-26T01:39:10.579Z,740.84
2016-10-26T01:40:10.570Z,740.82
2016-10-26T01:41:10.549Z,740.57
2016-10-26T01:42:10.542Z,740.82
2016-10-26T01:43:10.528Z,740.75
2016-10-26T01:44:10.507Z,740.65
2016-10-26T01:45:10.499Z,740.69
2016-10-26T01:46:10.485Z,740.71
2016-10-26T01:47:10.471Z,740.71
2016-10-26T01:48:10.449Z,740.71
2016-10-26T01:49:10.592Z,740.74
2016-10-26T01:50:10.423Z,740.71
2016-10-26T01:51:10.406Z,740.65
2016-10-26T01:52:10.399Z,740.75
2016-10-26T01:53:10.385Z,740.75
2016-10-26T01:54:10.371Z,740.73
2016-10-26T01:55:10.356Z,740.71
2016-10-26T01:56:10.334Z,740.77
2016-10-26T01:57:10.320Z,740.7
2016-10-26T01:58:10.313Z,740.71
2016-10-26T01:59:10.299Z,740.71
2016-10-26T02:00:10.284Z,740.76
2016-10-26T02:01:10.270Z,740.75
2016-10-26T02:02:10.249Z,740.67
2016-10-26T02:03:10.233Z,740.72
2016-10-26T02:04:10.221Z,740.71
2016-10-26T02:05:10.212Z,740.72
2016-10-26T02:06:10.191Z,740.72
2016-10-26T02:07:10.183Z,740.65
2016-10-26T02:08:10.162Z,740.7
2016-10-26T02:09:10.146Z,740.6
2016-10-26T02:10:10.139Z,740.59
2016-10-26T02:11:10.118Z,740.57
2016-10-26T02:12:10.110Z,740.7
2016-10-26T02:13:10.089Z,740.62
2016-10-26T02:14:10.072Z,740.62
2016-10-26T02:15:10.066Z,740.65
2016-10-26T02:16:10.044Z,740.67
2016-10-26T02:17:10.029Z,740.73
2016-10-26T02:18:10.022Z,740.71
2016-10-26T02:19:10.007Z,740.69
2016-10-26T02:20:09.992Z,740.65
2016-10-26T02:21:09.971Z,740.61
2016-10-26T02:22:09.965Z,740.54
2016-10-26T02:23:09.951Z,740.59
2016-10-26T02:24:09.930Z,740.63
2016-10-26T02:25:09.916Z,740.67
2016-10-26T02:26:09.903Z,740.66
2016-10-26T02:27:09.889Z,740.62
2016-10-26T02:28:09.873Z,740.53
2016-10-26T02:29:09.860Z,740.61
2016-10-26T02:30:09.996Z,740.63
2016-10-26T02:31:09.832Z,740.62
2016-10-26T02:32:09.825Z,740.6
2016-10-26T02:33:09.812Z,740.67
2016-10-26T02:34:09.798Z,740.68
2016-10-26T02:35:09.783Z,740.6
2016-10-26T02:36:09.764Z,740.68
2016-10-26T02:37:09.750Z,740.68
2016-10-26T02:38:09.743Z,740.69
2016-10-26T02:39:09.729Z,740.68
2016-10-26T02:40:09.709Z,740.67
2016-10-26T02:41:09.696Z,740.66
2016-10-26T02:42:09.681Z,740.69
2016-10-26T02:43:09.667Z,740.72
2016-10-26T02:44:09.662Z,740.69
2016-10-26T02:45:09.642Z,740.71
2016-10-26T02:46:09.627Z,740.69
2016-10-26T02:47:09.621Z,740.66
2016-10-26T02:48:09.601Z,740.65
2016-10-26T02:49:09.595Z,740.68
2016-10-26T02:50:09.580Z,740.67
2016-10-26T02:51:09.567Z,740.66
2016-10-26T02:52:09.547Z,740.68
2016-10-26T02:53:09.533Z,740.66
2016-10-26T02:54:09.519Z,740.7
2016-10-26T02:55:09.513Z,740.68
2016-10-26T02:56:09.500Z,740.7
2016-10-26T02:57:09.486Z,740.69
2016-10-26T02:58:09.473Z,740.72
2016-10-26T02:59:09.452Z,740.71
2016-10-26T03:00:09.446Z,740.7
2016-10-26T03:01:09.425Z,740.71
2016-10-26T03:02:09.419Z,740.65
2016-10-26T03:03:09.407Z,740.68
2016-10-26T03:04:09.393Z,740.71
2016-10-26T03:05:09.373Z,740.71
2016-10-26T03:06:09.367Z,740.68
2016-10-26T03:07:09.354Z,740.65
2016-10-26T03:08:09.333Z,740.65
2016-10-26T03:09:09.321Z,740.6
2016-10-26T03:10:09.307Z,740.64
2016-10-26T03:11:09.301Z,740.67
2016-10-26T03:12:09.288Z,740.72
2016-10-26T03:13:09.268Z,740.63
2016-10-26T03:14:09.255Z,740.68
2016-10-26T03:15:09.241Z,740.62
2016-10-26T03:16:09.228Z,740.64
2016-10-26T03:17:09.222Z,740.63
2016-10-26T03:18:09.202Z,740.6
2016-10-26T03:19:09.189Z,740.59
2016-10-26T03:20:09.183Z,740.63
2016-10-26T03:21:09.170Z,740.66
2016-10-26T03:22:09.151Z,740.66
2016-10-26T03:23:09.136Z,740.68
2016-10-26T03:24:09.130Z,740.66
2016-10-26T03:25:09.110Z,740.66
2016-10-26T03:26:09.248Z,740.66
2016-10-26T03:27:09.085Z,740.63
2016-10-26T03:28:09.073Z,740.64
2016-10-26T03:29:09.059Z,740.68
2016-10-26T03:30:09.053Z,740.67
2016-10-26T03:31:09.033Z,740.64
2016-10-26T03:32:09.020Z,740.62
2016-10-26T03:33:09.008Z,740.66
2016-10-26T03:34:09.003Z,740.69
2016-10-26T03:35:08.984Z,740.69
2016-10-26T03:36:08.971Z,740.69
2016-10-26T03:37:08.957Z,740.69
2016-10-26T03:38:08.952Z,740.69
2016-10-26T03:39:08.939Z,740.71
2016-10-26T03:40:08.919Z,740.73
2016-10-26T03:41:08.907Z,740.75
2016-10-26T03:42:08.894Z,740.76
2016-10-26T03:43:08.888Z,740.78
2016-10-26T03:44:08.874Z,740.8
2016-10-26T03:45:08.856Z,740.73
2016-10-26T03:46:08.849Z,740.76
2016-10-26T03:47:08.829Z,740.75
2016-10-26T03:48:08.824Z,740.72
2016-10-26T03:49:08.811Z,740.78
2016-10-26T03:50:08.799Z,740.79
2016-10-26T03:51:08.780Z,740.77
2016-10-26T03:52:08.774Z,740.78
2016-10-26T03:53:08.755Z,740.79
2016-10-26T03:54:08.750Z,740.78
2016-10-26T03:55:08.729Z,740.8
2016-10-26T03:56:08.717Z,740.79
2016-10-26T03:57:08.712Z,740.77
2016-10-26T03:58:08.700Z,740.77
2016-10-26T03:59:08.681Z,740.73
2016-10-26T04:00:08.675Z,740.7
2016-10-26T04:01:08.663Z,740.71
2016-10-26T04:02:08.651Z,740.77
2016-10-26T04:03:08.638Z,740.75
2016-10-26T04:04:08.625Z,740.76
2016-10-26T04:05:08.613Z,740.76
2016-10-26T04:06:08.599Z,740.76
2016-10-26T04:07:08.586Z,740.78
2016-10-26T04:08:08.573Z,740.75
2016-10-26T04:09:08.554Z,740.72
2016-10-26T04:10:08.539Z,740.69
2016-10-26T04:11:08.527Z,740.75
2016-10-26T04:12:08.513Z,740.77
2016-10-26T04:13:08.506Z,740.76
2016-10-26T04:14:08.493Z,740.78
2016-10-26T04:15:08.479Z,740.79
2016-10-26T04:16:08.466Z,740.77
2016-10-26T04:17:08.444Z,740.8
2016-10-26T04:18:08.431Z,740.81
2016-10-26T04:19:08.425Z,740.81
2016-10-26T04:20:08.406Z,740.82
2016-10-26T04:21:08.392Z,740.89
2016-10-26T04:22:08.379Z,740.88
2016-10-26T04:23:08.365Z,740.86
2016-10-26T04:24:08.360Z,740.82
2016-10-26T04:25:08.346Z,740.81
2016-10-26T04:26:08.327Z,740.82
2016-10-26T04:27:08.321Z,740.87
2016-10-26T04:28:08.308Z,740.83
2016-10-26T04:29:08.295Z,740.85
2016-10-26T04:30:08.282Z,740.79
2016-10-26T04:31:08.270Z,740.77
2016-10-26T04:32:08.250Z,740.8
2016-10-26T04:33:08.237Z,740.81
2016-10-26T04:34:08.223Z,740.79
2016-10-26T04:35:08.217Z,740.8
2016-10-26T04:36:08.196Z,740.79
2016-10-26T04:37:08.190Z,740.84
2016-10-26T04:38:08.176Z,740.84
2016-10-26T04:39:08.162Z,740.8
2016-10-26T04:40:08.142Z,740.8
2016-10-26T04:41:08.130Z,740.79
2016-10-26T04:42:08.115Z,740.76
2016-10-26T04:43:08.102Z,740.79
2016-10-26T04:44:08.095Z,740.83
2016-10-26T04:45:08.076Z,740.84
2016-10-26T04:46:08.063Z,740.88
2016-10-26T04:47:08.055Z,740.89
2016-10-26T04:48:08.041Z,740.89
2016-10-26T04:49:08.022Z,740.9
2016-10-26T04:50:08.007Z,740.89
2016-10-26T04:51:08.003Z,740.9
2016-10-26T04:52:07.988Z,740.91
2016-10-26T04:53:07.975Z,740.87
2016-10-26T04:54:07.954Z,740.87
2016-10-26T04:55:07.941Z,740.87
2016-10-26T04:56:07.934Z,740.88
2016-10-26T04:57:07.921Z,740.86
2016-10-26T04:58:07.907Z,740.9
2016-10-26T04:59:07.887Z,740.87
2016-10-26T05:00:07.880Z,740.92
2016-10-26T05:01:07.866Z,740.88
2016-10-26T05:02:07.853Z,740.89
2016-10-26T05:03:07.833Z,740.85
2016-10-26T05:04:07.819Z,740.88
2016-10-26T05:05:07.812Z,740.86
2016-10-26T05:06:07.799Z,740.88
2016-10-26T05:07:07.779Z,740.89
2016-10-26T05:08:07.766Z,740.91
2016-10-26T05:09:07.752Z,740.86
2016-10-26T05:10:07.746Z,740.89
2016-10-26T05:11:07.734Z,740.91
2016-10-26T05:12:07.711Z,740.92
2016-10-26T05:13:07.706Z,740.93
2016-10-26T05:14:07.686Z,740.92
2016-10-26T05:15:07.672Z,740.91
2016-10-26T05:16:07.659Z,740.9
2016-10-26T05:17:07.653Z,740.93
2016-10-26T05:18:07.633Z,740.9
2016-10-26T05:19:07.626Z,740.88
2016-10-26T05:20:07.613Z,740.84
2016-10-26T05:21:07.593Z,740.87
2016-10-26T05:22:07.587Z,740.88
2016-10-26T05:23:07.573Z,740.87
2016-10-26T05:24:07.554Z,740.94
2016-10-26T05:25:07.548Z,740.89
2016-10-26T05:26:07.535Z,740.93
2016-10-26T05:27:07.514Z,740.93
2016-10-26T05:28:07.502Z,740.89
2016-10-26T05:29:07.488Z,740.93
2016-10-26T05:30:07.482Z,740.91
2016-10-26T05:31:07.465Z,740.86
2016-10-26T05:32:07.457Z,740.92
2016-10-26T05:33:07.444Z,740.91
2016-10-26T05:34:07.431Z,740.89
2016-10-26T05:35:07.418Z,740.89
2016-10-26T05:36:07.399Z,740.9
2016-10-26T05:37:07.386Z,740.89
2016-10-26T05:38:07.373Z,740.96
2016-10-26T05:39:07.366Z,740.95
2016-10-26T05:40:07.346Z,740.96
2016-10-26T05:41:07.334Z,740.98
2016-10-26T05:42:07.319Z,740.98
2016-10-26T05:43:07.307Z,741
2016-10-26T05:44:07.302Z,740.98
2016-10-26T05:45:07.288Z,740.95
2016-10-26T05:46:07.268Z,741
2016-10-26T05:47:07.255Z,740.99
2016-10-26T05:48:07.244Z,740.96
2016-10-26T05:49:07.229Z,740.93
2016-10-26T05:50:07.225Z,740.99
2016-10-26T05:51:07.205Z,740.95
2016-10-26T05:52:07.200Z,740.95
2016-10-26T05:53:07.184Z,740.99
2016-10-26T05:54:07.166Z,740.99
2016-10-26T05:55:07.159Z,740.99
2016-10-26T05:56:07.138Z,740.98
2016-10-26T05:57:07.132Z,741
2016-10-26T05:58:07.119Z,741
2016-10-26T05:59:07.106Z,740.99
2016-10-26T06:00:07.092Z,741.02
2016-10-26T06:01:07.079Z,741.03
2016-10-26T06:02:07.069Z,741
2016-10-26T06:03:07.046Z,741
2016-10-26T06:04:07.195Z,740.98
2016-10-26T06:05:07.020Z,741.01
2016-10-26T06:06:07.006Z,740.98
2016-10-26T06:07:06.992Z,741.04
2016-10-26T06:08:06.986Z,740.99
2016-10-26T06:09:06.973Z,740.99
2016-10-26T06:10:06.953Z,741.02
2016-10-26T06:11:06.938Z,741.03
2016-10-26T06:12:06.926Z,741.03
2016-10-26T06:13:06.914Z,741.07
2016-10-26T06:14:06.906Z,741.06
2016-10-26T06:15:06.894Z,741.07
2016-10-26T06:16:06.873Z,741.11
2016-10-26T06:17:06.868Z,741.11
2016-10-26T06:18:06.847Z,741.12
2016-10-26T06:19:06.834Z,741.08
2016-10-26T06:20:06.822Z,741.08
2016-10-26T06:21:06.816Z,741.1
2016-10-26T06:22:06.796Z,741.12
2016-10-26T06:23:06.783Z,741.14
2016-10-26T06:24:06.769Z,741.09
2016-10-26T06:25:06.755Z,741.09
2016-10-26T06:26:06.750Z,741.08
2016-10-26T06:27:06.739Z,741.05
2016-10-26T06:28:06.725Z,741.01
2016-10-26T06:29:06.711Z,741.09
2016-10-26T06:30:06.698Z,741.07
2016-10-26T06:31:06.685Z,741.07
2016-10-26T06:32:06.666Z,741.12
2016-10-26T06:33:06.659Z,741.1
2016-10-26T06:34:06.646Z,741.11
2016-10-26T06:35:06.633Z,741.11
2016-10-26T06:36:06.612Z,741.11
2016-10-26T06:37:06.607Z,741.09
2016-10-26T06:38:06.594Z,741.11
2016-10-26T06:39:06.582Z,741.16
2016-10-26T06:40:06.562Z,741.16
2016-10-26T06:41:06.556Z,741.14
2016-10-26T06:42:06.536Z,741.18
2016-10-26T06:43:06.531Z,741.1
2016-10-26T06:44:06.519Z,741.11
2016-10-26T06:45:06.506Z,741.12
2016-10-26T06:46:06.494Z,741.15
2016-10-26T06:47:06.473Z,741.14
2016-10-26T06:48:06.468Z,741.17
2016-10-26T06:49:06.447Z,741.24
2016-10-26T06:50:06.442Z,741.18
2016-10-26T06:51:06.421Z,741.23
2016-10-26T06:52:06.410Z,741.22
2016-10-26T06:53:06.397Z,741.23
2016-10-26T06:54:06.383Z,741.23
2016-10-26T06:55:06.370Z,741.24
2016-10-26T06:56:06.358Z,741.25
2016-10-26T06:57:06.352Z,741.23
2016-10-26T06:58:06.331Z,741.25
2016-10-26T06:59:06.320Z,741.28
2016-10-26T07:00:06.407Z,741.24
2016-10-26T07:01:06.302Z,741.24
2016-10-26T07:02:06.282Z,741.26
2016-10-26T07:03:06.277Z,741.25
2016-10-26T07:04:06.257Z,741.25
2016-10-26T07:05:06.251Z,741.23
2016-10-26T07:06:06.234Z,741.22
2016-10-26T07:07:06.228Z,741.28
2016-10-26T07:08:06.209Z,741.31
2016-10-26T07:09:06.195Z,741.33
2016-10-26T07:10:06.183Z,741.33
2016-10-26T07:11:06.172Z,741.3
2016-10-26T07:12:06.167Z,741.35
2016-10-26T07:13:06.153Z,741.31
2016-10-26T07:14:06.141Z,741.3
2016-10-26T07:15:06.129Z,741.33
2016-10-26T07:16:06.109Z,741.34
2016-10-26T07:17:06.104Z,741.33
2016-10-26T07:18:06.085Z,741.32
2016-10-26T07:19:06.080Z,741.34
2016-10-26T07:20:06.060Z,741.33
2016-10-26T07:21:06.055Z,741.28
2016-10-26T07:22:06.036Z,741.32
2016-10-26T07:23:06.025Z,741.31
2016-10-26T07:24:06.019Z,741.35
2016-10-26T07:25:06.008Z,741.3
2016-10-26T07:26:05.995Z,741.31
2016-10-26T07:27:05.983Z,741.32
2016-10-26T07:28:05.972Z,741.3
2016-10-26T07:29:05.960Z,741.3
2016-10-26T07:30:05.943Z,741.32
2016-10-26T07:31:05.929Z,741.29
2016-10-26T07:32:05.918Z,741.31
2016-10-26T07:33:05.908Z,741.33
2016-10-26T07:34:05.896Z,741.29
2016-10-26T07:35:05.882Z,741.28
2016-10-26T07:36:05.872Z,741.28
2016-10-26T07:37:05.860Z,741.28
2016-10-26T07:38:05.855Z,741.28
2016-10-26T07:39:05.843Z,741.27
2016-10-26T07:40:05.826Z,741.29
2016-10-26T07:41:05.820Z,741.27
2016-10-26T07:42:05.809Z,741.26
2016-10-26T07:43:05.789Z,741.28
2016-10-26T07:44:05.785Z,741.24
2016-10-26T07:45:05.767Z,741.24
2016-10-26T07:46:05.761Z,741.27
2016-10-26T07:47:05.749Z,741.27
2016-10-26T07:48:05.731Z,741.24
2016-10-26T07:49:05.725Z,741.27
2016-10-26T07:50:05.713Z,741.29
2016-10-26T07:51:05.851Z,741.3
2016-10-26T07:52:05.689Z,741.27
2016-10-26T07:53:05.670Z,741.33
2016-10-26T07:54:05.658Z,741.29
2016-10-26T07:55:05.653Z,741.32
2016-10-26T07:56:05.640Z,741.26
2016-10-26T07:57:05.626Z,741.31
2016-10-26T07:58:05.614Z,741.38
2016-10-26T07:59:05.602Z,741.35
2016-10-26T08:00:05.581Z,741.33
2016-10-26T08:01:05.576Z,741.36
2016-10-26T08:02:05.556Z,741.36
2016-10-26T08:03:05.544Z,741.36
2016-10-26T08:04:05.538Z,741.39
2016-10-26T08:05:05.519Z,741.39
2016-10-26T08:06:05.505Z,741.42
2016-10-26T08:07:05.493Z,741.41
2016-10-26T08:08:05.480Z,741.45
2016-10-26T08:09:05.467Z,741.4
2016-10-26T08:10:05.461Z,741.4
2016-10-26T08:11:05.448Z,741.44
2016-10-26T08:12:05.429Z,741.43
2016-10-26T08:13:05.416Z,741.44
2016-10-26T08:14:05.405Z,741.44
2016-10-26T08:15:05.397Z,741.4
2016-10-26T08:16:05.385Z,741.46
2016-10-26T08:17:05.373Z,741.49
2016-10-26T08:18:05.361Z,741.44
2016-10-26T08:19:05.342Z,741.49
2016-10-26T08:20:05.329Z,741.54
2016-10-26T08:21:05.324Z,741.51
2016-10-26T08:22:05.305Z,741.53
2016-10-26T08:23:05.292Z,741.55
2016-10-26T08:24:05.287Z,741.56
2016-10-26T08:25:05.275Z,741.55
2016-10-26T08:26:05.256Z,741.55
2016-10-26T08:27:05.243Z,741.58
2016-10-26T08:28:05.232Z,741.53
2016-10-26T08:29:05.219Z,741.55
2016-10-26T08:30:05.206Z,741.57
2016-10-26T08:31:05.201Z,741.5
2016-10-26T08:32:05.183Z,741.52
2016-10-26T08:33:05.170Z,741.52
2016-10-26T08:34:05.158Z,741.51
2016-10-26T08:35:05.145Z,741.55
2016-10-26T08:36:05.132Z,741.51
2016-10-26T08:37:05.126Z,741.55
2016-10-26T08:38:05.114Z,741.56
2016-10-26T08:39:05.101Z,741.59
2016-10-26T08:40:05.088Z,741.56
2016-10-26T08:41:05.068Z,741.51
2016-10-26T08:42:05.063Z,741.54
2016-10-26T08:43:05.044Z,741.55
2016-10-26T08:44:05.030Z,741.58
2016-10-26T08:45:05.023Z,741.6
2016-10-26T08:46:05.003Z,741.56
2016-10-26T08:47:04.991Z,741.56
2016-10-26T08:48:04.984Z,741.53
2016-10-26T08:49:04.964Z,741.54
2016-10-26T08:50:04.957Z,741.54
2016-10-26T08:51:04.936Z,741.54
2016-10-26T08:52:04.930Z,741.56
2016-10-26T08:53:04.910Z,741.55
2016-10-26T08:54:04.904Z,741.55
2016-10-26T08:55:04.890Z,741.58
2016-10-26T08:56:04.869Z,741.54
2016-10-26T08:57:04.856Z,741.51
2016-10-26T08:58:04.850Z,741.53
2016-10-26T08:59:04.836Z,741.48
2016-10-26T09:00:04.815Z,741.5
2016-10-26T09:01:04.802Z,741.45
2016-10-26T09:02:04.789Z,741.49
2016-10-26T09:03:04.775Z,741.52
2016-10-26T09:04:04.761Z,741.5
2016-10-26T09:05:04.750Z,741.54
2016-10-26T09:06:04.735Z,741.55
2016-10-26T09:07:04.728Z,741.51
2016-10-26T09:08:04.715Z,741.54
2016-10-26T09:09:04.696Z,741.54
2016-10-26T09:10:04.688Z,741.54
2016-10-26T09:11:04.675Z,741.58
2016-10-26T09:12:04.656Z,741.58
2016-10-26T09:13:04.642Z,741.57
2016-10-26T09:14:04.630Z,741.56
2016-10-26T09:15:04.623Z,741.58
2016-10-26T09:16:04.604Z,741.55
2016-10-26T09:17:04.597Z,741.59
2016-10-26T09:18:04.577Z,741.61
2016-10-26T09:19:04.565Z,741.59
2016-10-26T09:20:04.559Z,741.63
2016-10-26T09:21:04.546Z,741.61
2016-10-26T09:22:04.533Z,741.62
2016-10-26T09:23:04.514Z,741.62
2016-10-26T09:24:04.508Z,741.62
2016-10-26T09:25:04.495Z,741.61
2016-10-26T09:26:04.482Z,741.6
2016-10-26T09:27:04.470Z,741.64
2016-10-26T09:28:04.457Z,741.65
2016-10-26T09:29:04.444Z,741.67
2016-10-26T09:30:04.432Z,741.63
2016-10-26T09:31:04.420Z,741.71
2016-10-26T09:32:04.400Z,741.67
2016-10-26T09:33:04.394Z,741.7
2016-10-26T09:34:04.376Z,741.72
2016-10-26T09:35:04.363Z,741.73
2016-10-26T09:36:04.358Z,741.75
2016-10-26T09:37:04.338Z,741.72
2016-10-26T09:38:04.334Z,741.71
2016-10-26T09:39:04.321Z,741.73
2016-10-26T09:40:04.302Z,741.75
2016-10-26T09:41:04.291Z,741.72
2016-10-26T09:42:04.279Z,741.71
2016-10-26T09:43:04.273Z,741.8
2016-10-26T09:44:04.254Z,741.76
2016-10-26T09:45:04.250Z,741.76
2016-10-26T09:46:04.232Z,741.78
2016-10-26T09:47:04.226Z,741.8
2016-10-26T09:48:04.207Z,741.77
2016-10-26T09:49:04.195Z,741.76
2016-10-26T09:50:04.183Z,741.79
2016-10-26T09:51:04.172Z,741.8
2016-10-26T09:52:04.167Z,741.8
2016-10-26T09:53:04.149Z,741.82
2016-10-26T09:54:04.137Z,741.81
2016-10-26T09:55:04.132Z,741.78
2016-10-26T09:56:04.121Z,741.77
2016-10-26T09:57:04.100Z,741.82
2016-10-26T09:58:04.090Z,741.84
2016-10-26T09:59:04.079Z,741.86
2016-10-26T10:00:04.073Z,741.84
2016-10-26T10:01:04.053Z,741.84
2016-10-26T10:02:04.049Z,741.82
2016-10-26T10:03:04.030Z,741.78
2016-10-26T10:04:04.025Z,741.86
2016-10-26T10:05:04.014Z,741.85
2016-10-26T10:06:04.006Z,741.81
2016-10-26T10:07:03.983Z,741.83
2016-10-26T10:08:03.972Z,741.8
2016-10-26T10:09:03.967Z,741.78
2016-10-26T10:10:03.955Z,741.77
2016-10-26T10:11:03.937Z,741.79
2016-10-26T10:12:03.925Z,741.75
2016-10-26T10:13:03.913Z,741.8
2016-10-26T10:14:03.908Z,741.76
2016-10-26T10:15:03.895Z,741.74
2016-10-26T10:16:03.876Z,741.75
2016-10-26T10:17:03.872Z,741.76
2016-10-26T10:18:03.860Z,741.81
2016-10-26T10:19:03.848Z,741.78
2016-10-26T10:20:03.829Z,741.77
2016-10-26T10:21:03.818Z,741.8
2016-10-26T10:22:03.813Z,741.78
2016-10-26T10:23:03.794Z,741.73
2016-10-26T10:24:03.788Z,741.77
2016-10-26T10:25:03.770Z,741.77
2016-10-26T10:26:03.764Z,741.82
2016-10-26T10:27:03.745Z,741.75
2016-10-26T10:28:03.735Z,741.77
2016-10-26T10:29:03.729Z,741.74
2016-10-26T10:30:03.710Z,741.77
2016-10-26T10:31:03.698Z,741.73
2016-10-26T10:32:03.686Z,741.76
2016-10-26T10:33:03.682Z,741.76
2016-10-26T10:34:03.663Z,741.78
2016-10-26T10:35:03.652Z,741.75
2016-10-26T10:36:03.647Z,741.74
2016-10-26T10:37:03.628Z,741.75
2016-10-26T10:38:03.616Z,741.76
2016-10-26T10:39:03.604Z,741.73
2016-10-26T10:40:03.593Z,741.8
2016-10-26T10:41:03.587Z,741.75
2016-10-26T10:42:03.569Z,741.73
2016-10-26T10:43:03.558Z,741.74
2016-10-26T10:44:03.554Z,741.78
2016-10-26T10:45:03.541Z,741.73
2016-10-26T10:46:03.531Z,741.74
2016-10-26T10:47:03.512Z,741.75
2016-10-26T10:48:03.499Z,741.72
2016-10-26T10:49:03.488Z,741.71
2016-10-26T10:50:03.484Z,741.76
2016-10-26T10:51:03.465Z,741.73
2016-10-26T10:52:03.460Z,741.76
2016-10-26T10:53:03.442Z,741.73
2016-10-26T10:54:03.432Z,741.77
2016-10-26T10:55:03.420Z,741.75
2016-10-26T10:56:03.407Z,741.71
2016-10-26T10:57:03.404Z,741.72
2016-10-26T10:58:03.392Z,741.7
2016-10-26T10:59:03.373Z,741.68
2016-10-26T11:00:03.369Z,741.69
2016-10-26T11:01:03.358Z,741.68
2016-10-26T11:02:03.341Z,741.72
2016-10-26T11:03:03.329Z,741.71
2016-10-26T11:04:03.318Z,741.68
2016-10-26T11:05:03.313Z,741.67
2016-10-26T11:06:03.294Z,741.67
2016-10-26T11:07:03.290Z,741.67
2016-10-26T11:08:03.279Z,741.71
2016-10-26T11:09:03.260Z,741.72
2016-10-26T11:10:03.250Z,741.69
2016-10-26T11:11:03.238Z,741.69
2016-10-26T11:12:03.234Z,741.65
2016-10-26T11:13:03.217Z,741.64
2016-10-26T11:14:03.204Z,741.64
2016-10-26T11:15:03.201Z,741.65
2016-10-26T11:16:03.190Z,741.62
2016-10-26T11:17:03.180Z,741.64
2016-10-26T11:18:03.168Z,741.59
2016-10-26T11:19:03.158Z,741.58
2016-10-26T11:20:03.141Z,741.62
2016-10-26T11:21:03.129Z,741.58
2016-10-26T11:22:03.118Z,741.59
2016-10-26T11:23:03.115Z,741.6
2016-10-26T11:24:03.101Z,741.61
2016-10-26T11:25:03.094Z,741.63
2016-10-26T11:26:03.083Z,741.59
2016-10-26T11:27:03.066Z,741.58
2016-10-26T11:28:03.055Z,741.6
2016-10-26T11:29:03.045Z,741.6
2016-10-26T11:30:03.186Z,741.58
2016-10-26T11:31:03.025Z,741.56
2016-10-26T11:32:03.020Z,741.6
2016-10-26T11:33:03.003Z,741.62
2016-10-26T11:34:02.999Z,741.59
2016-10-26T11:35:02.982Z,741.62
2016-10-26T11:36:02.977Z,741.58
2016-10-26T11:37:02.960Z,741.59
2016-10-26T11:38:02.948Z,741.57
2016-10-26T11:39:02.937Z,741.58
2016-10-26T11:40:02.933Z,741.63
2016-10-26T11:41:02.922Z,741.58
2016-10-26T11:42:02.904Z,741.56
2016-10-26T11:43:02.900Z,741.57
2016-10-26T11:44:02.882Z,741.58
2016-10-26T11:45:02.870Z,741.58
2016-10-26T11:46:02.860Z,741.61
2016-10-26T11:47:02.855Z,741.61
2016-10-26T11:48:02.837Z,741.59
2016-10-26T11:49:02.833Z,741.54
2016-10-26T11:50:02.814Z,741.52
2016-10-26T11:51:02.803Z,741.55
2016-10-26T11:52:02.809Z,741.53
2016-10-26T11:53:02.781Z,741.45
2016-10-26T11:54:02.776Z,741.52
2016-10-26T11:55:02.766Z,741.48
2016-10-26T11:56:02.755Z,741.46
2016-10-26T11:57:02.737Z,741.45
2016-10-26T11:58:02.733Z,741.41
2016-10-26T11:59:02.722Z,741.36
2016-10-26T12:00:02.705Z,741.39
2016-10-26T12:01:02.693Z,741.38
2016-10-26T12:02:02.689Z,741.43
2016-10-26T12:03:02.671Z,741.41
2016-10-26T12:04:02.662Z,741.41
2016-10-26T12:05:02.650Z,741.44
2016-10-26T12:06:02.638Z,741.38
2016-10-26T12:07:02.628Z,741.41
2016-10-26T12:08:02.623Z,741.46
2016-10-26T12:09:02.611Z,741.47
2016-10-26T12:10:02.600Z,741.47
2016-10-26T12:11:02.588Z,741.4
2016-10-26T12:12:02.576Z,741.46
2016-10-26T12:13:02.557Z,741.41
2016-10-26T12:14:02.553Z,741.4
2016-10-26T12:15:02.541Z,741.42
2016-10-26T12:16:02.530Z,741.3
2016-10-26T12:17:02.517Z,741.36
2016-10-26T12:18:02.506Z,741.31
2016-10-26T12:19:02.494Z,741.31
2016-10-26T12:20:02.482Z,741.28
2016-10-26T12:21:02.465Z,741.37
2016-10-26T12:22:02.452Z,741.32
2016-10-26T12:23:02.448Z,741.27
2016-10-26T12:24:02.429Z,741.24
2016-10-26T12:25:02.425Z,741.27
2016-10-26T12:26:02.415Z,741.3
2016-10-26T12:27:02.396Z,741.29
2016-10-26T12:28:02.391Z,741.31
2016-10-26T12:29:02.372Z,741.37
2016-10-26T12:30:02.363Z,741.39
2016-10-26T12:31:02.351Z,741.29